createdAt,value
2016-05-05T00:00:11.789Z,0
2016-05-05T00:01:11.667Z,0
2016-05-05T00:02:11.873Z,0
2016-05-05T00:03:11.906Z,0
2016-05-05T00:04:11.940Z,0
2016-05-05T00:05:11.974Z,0
2016-05-05T00:06:11.836Z,0
2016-05-05T00:07:11.886Z,0
2016-05-05T00:08:12.044Z,0
2016-05-05T00:09:11.939Z,0
2016-05-05T00:10:12.113Z,0
2016-05-05T00:11:12.147Z,0
2016-05-05T00:12:12.008Z,0
2016-05-05T00:13:12.074Z,0
2016-05-05T00:14:12.233Z,0
2016-05-05T00:15:12.266Z,0
2016-05-05T00:16:12.144Z,0
2016-05-05T00:17:12.334Z,0
2016-05-05T00:18:12.369Z,0
2016-05-05T00:19:12.246Z,0
2016-05-05T00:20:12.421Z,0
2016-05-05T00:21:12.455Z,0
2016-05-05T00:22:12.551Z,0
2016-05-05T00:23:12.366Z,0
2016-05-05T00:24:12.541Z,0
2016-05-05T00:25:12.434Z,0
2016-05-05T00:26:12.624Z,0
2016-05-05T00:27:12.643Z,0
2016-05-05T00:28:12.692Z,0
2016-05-05T00:29:12.711Z,0
2016-05-05T00:30:12.588Z,0
2016-05-05T00:31:12.795Z,0
2016-05-05T00:32:12.656Z,0
2016-05-05T00:33:12.689Z,0
2016-05-05T00:34:12.709Z,0
2016-05-05T00:35:12.758Z,0
2016-05-05T00:36:12.948Z,0
2016-05-05T00:37:12.545Z,0
2016-05-05T00:38:13.016Z,0
2016-05-05T00:39:13.238Z,0
2016-05-05T00:40:13.099Z,0
2016-05-05T00:41:13.086Z,0
2016-05-05T00:42:13.121Z,0
2016-05-05T00:43:13.155Z,0
2016-05-05T00:44:13.188Z,0
2016-05-05T00:45:13.222Z,0
2016-05-05T00:46:13.240Z,0
2016-05-05T00:47:13.135Z,0
2016-05-05T00:48:13.168Z,0
2016-05-05T00:49:13.343Z,0
2016-05-05T00:50:13.376Z,0
2016-05-05T00:51:13.239Z,0
2016-05-05T00:52:13.444Z,0
2016-05-05T00:53:13.479Z,0
2016-05-05T00:54:13.778Z,0
2016-05-05T00:55:13.546Z,0
2016-05-05T00:56:13.237Z,0
2016-05-05T00:57:13.583Z,0
2016-05-05T00:58:13.461Z,0
2016-05-05T00:59:13.495Z,0
2016-05-05T01:00:13.700Z,0
2016-05-05T01:01:13.562Z,0
2016-05-05T01:02:13.596Z,0
2016-05-05T01:03:13.614Z,0
2016-05-05T01:04:13.820Z,0
2016-05-05T01:05:13.839Z,0
2016-05-05T01:06:13.889Z,0
2016-05-05T01:07:13.766Z,0
2016-05-05T01:08:13.784Z,0
2016-05-05T01:09:14.708Z,0
2016-05-05T01:10:13.992Z,0
2016-05-05T01:11:14.011Z,0
2016-05-05T01:12:14.060Z,0
2016-05-05T01:13:14.094Z,0
2016-05-05T01:14:13.957Z,0
2016-05-05T01:15:14.147Z,0
2016-05-05T01:16:13.869Z,0
2016-05-05T01:17:14.058Z,0
2016-05-05T01:18:14.264Z,0
2016-05-05T01:19:13.813Z,0
2016-05-05T01:20:14.301Z,0
2016-05-05T01:21:14.351Z,0
2016-05-05T01:22:14.369Z,0
2016-05-05T01:23:14.402Z,0
2016-05-05T01:24:14.905Z,0
2016-05-05T01:25:14.471Z,0
2016-05-05T01:26:14.505Z,0
2016-05-05T01:27:14.367Z,0
2016-05-05T01:28:14.557Z,0
2016-05-05T01:29:14.590Z,0
2016-05-05T01:30:14.609Z,0
2016-05-05T01:31:14.674Z,0
2016-05-05T01:32:14.693Z,0
2016-05-05T01:33:14.726Z,0
2016-05-05T01:34:14.604Z,0
2016-05-05T01:35:14.764Z,0
2016-05-05T01:36:14.642Z,0
2016-05-05T01:37:14.847Z,0
2016-05-05T01:38:14.865Z,0
2016-05-05T01:39:14.758Z,0
2016-05-05T01:40:14.777Z,0
2016-05-05T01:41:14.967Z,0
2016-05-05T01:42:14.689Z,0
2016-05-05T01:43:15.035Z,0
2016-05-05T01:44:15.038Z,0
2016-05-05T01:45:15.087Z,0
2016-05-05T01:46:15.105Z,0
2016-05-05T01:47:14.966Z,0
2016-05-05T01:48:15.173Z,0
2016-05-05T01:49:15.222Z,0
2016-05-05T01:50:15.085Z,0
2016-05-05T01:51:15.260Z,0
2016-05-05T01:52:15.298Z,0
2016-05-05T01:53:15.390Z,0
2016-05-05T01:54:15.311Z,0
2016-05-05T01:55:15.544Z,0
2016-05-05T01:56:15.604Z,0
2016-05-05T01:57:15.668Z,0
2016-05-05T01:58:15.732Z,0
2016-05-05T01:59:15.750Z,0
2016-05-05T02:00:15.659Z,0
2016-05-05T02:01:15.866Z,0
2016-05-05T02:02:15.894Z,0
2016-05-05T02:03:15.778Z,0
2016-05-05T02:04:50.160Z,0
2016-05-05T02:05:15.701Z,0
2016-05-05T02:06:15.881Z,0
2016-05-05T02:07:16.075Z,0
2016-05-05T02:08:15.955Z,0
2016-05-05T02:09:16.163Z,0
2016-05-05T02:10:16.011Z,0
2016-05-05T02:11:16.202Z,0
2016-05-05T02:12:16.254Z,0
2016-05-05T02:13:16.133Z,0
2016-05-05T02:14:16.291Z,0
2016-05-05T02:15:16.171Z,0
2016-05-05T02:16:16.361Z,0
2016-05-05T02:17:16.396Z,0
2016-05-05T02:18:16.430Z,0
2016-05-05T02:19:16.293Z,0
2016-05-05T02:20:16.483Z,0
2016-05-05T02:21:16.517Z,0
2016-05-05T02:22:16.537Z,0
2016-05-05T02:23:16.588Z,0
2016-05-05T02:24:16.418Z,0
2016-05-05T02:25:16.484Z,0
2016-05-05T02:26:16.361Z,0
2016-05-05T02:27:16.551Z,0
2016-05-05T02:28:16.742Z,0
2016-05-05T02:29:16.760Z,0
2016-05-05T02:30:16.794Z,0
2016-05-05T02:31:16.812Z,0
2016-05-05T02:32:16.862Z,0
2016-05-05T02:33:16.880Z,0
2016-05-05T02:34:16.929Z,0
2016-05-05T02:35:16.948Z,0
2016-05-05T02:36:16.981Z,0
2016-05-05T02:37:16.984Z,0
2016-05-05T02:38:17.034Z,0
2016-05-05T02:39:16.943Z,0
2016-05-05T02:40:17.134Z,0
2016-05-05T02:41:17.120Z,0
2016-05-05T02:42:16.998Z,0
2016-05-05T02:43:17.032Z,0
2016-05-05T02:44:16.911Z,0
2016-05-05T02:45:17.241Z,0
2016-05-05T02:46:16.961Z,0
2016-05-05T02:47:16.996Z,0
2016-05-05T02:48:17.358Z,0
2016-05-05T02:49:17.376Z,0
2016-05-05T02:50:17.427Z,0
2016-05-05T02:51:17.272Z,0
2016-05-05T02:52:17.463Z,0
2016-05-05T02:53:17.480Z,0
2016-05-05T02:54:17.858Z,0
2016-05-05T02:55:17.549Z,0
2016-05-05T02:56:17.583Z,0
2016-05-05T02:57:17.616Z,0
2016-05-05T02:58:17.479Z,0
2016-05-05T02:59:17.654Z,0
2016-05-05T03:00:17.704Z,0
2016-05-05T03:01:17.721Z,0
2016-05-05T03:02:17.755Z,0
2016-05-05T03:03:17.632Z,0
2016-05-05T03:04:17.667Z,0
2016-05-05T03:05:17.842Z,0
2016-05-05T03:06:17.906Z,0
2016-05-05T03:07:17.909Z,0
2016-05-05T03:08:17.787Z,0
2016-05-05T03:09:17.696Z,0
2016-05-05T03:10:17.995Z,0
2016-05-05T03:11:18.028Z,0
2016-05-05T03:12:17.906Z,0
2016-05-05T03:13:18.097Z,0
2016-05-05T03:14:17.991Z,0
2016-05-05T03:15:17.993Z,0
2016-05-05T03:16:17.886Z,0
2016-05-05T03:17:18.061Z,0
2016-05-05T03:18:17.923Z,0
2016-05-05T03:19:18.270Z,0
2016-05-05T03:20:18.303Z,0
2016-05-05T03:21:18.352Z,0
2016-05-05T03:22:18.355Z,0
2016-05-05T03:23:18.108Z,0
2016-05-05T03:24:18.283Z,0
2016-05-05T03:25:18.442Z,0
2016-05-05T03:26:18.319Z,0
2016-05-05T03:27:18.526Z,0
2016-05-05T03:28:18.543Z,0
2016-05-05T03:29:18.422Z,0
2016-05-05T03:30:18.627Z,0
2016-05-05T03:31:18.317Z,0
2016-05-05T03:32:18.507Z,0
2016-05-05T03:33:18.698Z,0
2016-05-05T03:34:18.732Z,0
2016-05-05T03:35:18.766Z,0
2016-05-05T03:36:18.784Z,0
2016-05-05T03:37:18.678Z,0
2016-05-05T03:38:18.837Z,0
2016-05-05T03:39:18.854Z,0
2016-05-05T03:40:18.920Z,0
2016-05-05T03:41:18.797Z,0
2016-05-05T03:42:18.972Z,0
2016-05-05T03:43:19.006Z,0
2016-05-05T03:44:19.056Z,0
2016-05-05T03:45:19.042Z,0
2016-05-05T03:46:19.092Z,5
2016-05-05T03:47:18.970Z,5
2016-05-05T03:48:19.161Z,5
2016-05-05T03:49:19.022Z,5
2016-05-05T03:50:19.055Z,5
2016-05-05T03:51:19.090Z,5
2016-05-05T03:52:19.280Z,5
2016-05-05T03:53:19.298Z,5
2016-05-05T03:54:20.238Z,5
2016-05-05T03:55:19.210Z,10
2016-05-05T03:56:19.400Z,10
2016-05-05T03:57:19.403Z,10
2016-05-05T03:58:19.296Z,10
2016-05-05T03:59:19.471Z,10
2016-05-05T04:00:19.504Z,10
2016-05-05T04:01:19.538Z,10
2016-05-05T04:02:19.557Z,15
2016-05-05T04:03:19.622Z,15
2016-05-05T04:04:19.640Z,15
2016-05-05T04:05:19.487Z,15
2016-05-05T04:06:19.521Z,15
2016-05-05T04:07:19.712Z,20
2016-05-05T04:08:19.292Z,20
2016-05-05T04:09:19.654Z,20
2016-05-05T04:10:19.797Z,20
2016-05-05T04:11:20.800Z,20
2016-05-05T04:12:19.865Z,25
2016-05-05T04:13:19.900Z,25
2016-05-05T04:14:19.917Z,25
2016-05-05T04:15:19.967Z,25
2016-05-05T04:16:20.001Z,30
2016-05-05T04:17:19.864Z,30
2016-05-05T04:18:19.725Z,30
2016-05-05T04:19:19.916Z,30
2016-05-05T04:20:20.105Z,30
2016-05-05T04:21:19.967Z,35
2016-05-05T04:22:20.158Z,35
2016-05-05T04:23:19.879Z,35
2016-05-05T04:24:19.929Z,35
2016-05-05T04:25:20.275Z,40
2016-05-05T04:26:20.138Z,40
2016-05-05T04:27:20.141Z,45
2016-05-05T04:28:20.346Z,45
2016-05-05T04:29:20.224Z,50
2016-05-05T04:30:20.382Z,55
2016-05-05T04:31:20.416Z,55
2016-05-05T04:32:20.310Z,60
2016-05-05T04:33:20.484Z,70
2016-05-05T04:34:20.362Z,70
2016-05-05T04:35:20.395Z,75
2016-05-05T04:36:20.571Z,75
2016-05-05T04:37:20.620Z,75
2016-05-05T04:38:20.482Z,80
2016-05-05T04:39:20.532Z,80
2016-05-05T04:40:20.534Z,80
2016-05-05T04:41:20.725Z,80
2016-05-05T04:42:20.759Z,80
2016-05-05T04:43:20.792Z,80
2016-05-05T04:44:20.686Z,80
2016-05-05T04:45:20.861Z,75
2016-05-05T04:46:20.723Z,75
2016-05-05T04:47:20.912Z,75
2016-05-05T04:48:20.946Z,80
2016-05-05T04:49:20.981Z,80
2016-05-05T04:50:20.842Z,85
2016-05-05T04:51:21.033Z,90
2016-05-05T04:52:21.082Z,85
2016-05-05T04:53:21.101Z,85
2016-05-05T04:54:21.603Z,80
2016-05-05T04:55:21.168Z,80
2016-05-05T04:56:21.187Z,80
2016-05-05T04:57:21.221Z,85
2016-05-05T04:58:21.082Z,85
2016-05-05T04:59:21.289Z,85
2016-05-05T05:00:21.307Z,85
2016-05-05T05:01:21.341Z,85
2016-05-05T05:02:21.375Z,90
2016-05-05T05:03:21.237Z,90
2016-05-05T05:04:21.442Z,90
2016-05-05T05:05:21.460Z,90
2016-05-05T05:06:21.480Z,95
2016-05-05T05:07:21.513Z,95
2016-05-05T05:08:21.563Z,95
2016-05-05T05:09:22.221Z,95
2016-05-05T05:10:21.615Z,100
2016-05-05T05:11:21.476Z,100
2016-05-05T05:12:21.527Z,95
2016-05-05T05:13:21.404Z,95
2016-05-05T05:14:21.579Z,95
2016-05-05T05:15:21.801Z,95
2016-05-05T05:16:21.803Z,100
2016-05-05T05:17:21.680Z,100
2016-05-05T05:18:21.855Z,100
2016-05-05T05:19:21.889Z,95
2016-05-05T05:20:21.923Z,95
2016-05-05T05:21:21.958Z,95
2016-05-05T05:22:21.991Z,95
2016-05-05T05:23:21.869Z,95
2016-05-05T05:24:22.934Z,95
2016-05-05T05:25:22.093Z,95
2016-05-05T05:26:22.111Z,95
2016-05-05T05:27:22.144Z,100
2016-05-05T05:28:21.866Z,100
2016-05-05T05:29:22.057Z,100
2016-05-05T05:30:22.247Z,100
2016-05-05T05:31:22.109Z,100
2016-05-05T05:32:22.143Z,105
2016-05-05T05:33:22.333Z,105
2016-05-05T05:34:22.351Z,105
2016-05-05T05:35:22.416Z,105
2016-05-05T05:36:22.263Z,110
2016-05-05T05:37:22.437Z,110
2016-05-05T05:38:22.190Z,110
2016-05-05T05:39:22.412Z,110
2016-05-05T05:40:22.540Z,115
2016-05-05T05:41:22.417Z,115
2016-05-05T05:42:22.451Z,115
2016-05-05T05:43:22.641Z,115
2016-05-05T05:44:22.659Z,120
2016-05-05T05:45:22.693Z,120
2016-05-05T05:46:22.743Z,120
2016-05-05T05:47:22.761Z,120
2016-05-05T05:48:22.780Z,115
2016-05-05T05:49:22.829Z,120
2016-05-05T05:50:22.691Z,120
2016-05-05T05:51:22.725Z,120
2016-05-05T05:52:22.759Z,120
2016-05-05T05:53:22.621Z,120
2016-05-05T05:54:22.874Z,125
2016-05-05T05:55:23.002Z,125
2016-05-05T05:56:22.879Z,120
2016-05-05T05:57:22.913Z,120
2016-05-05T05:58:22.947Z,120
2016-05-05T05:59:23.122Z,120
2016-05-05T06:00:23.015Z,120
2016-05-05T06:01:23.190Z,120
2016-05-05T06:02:23.223Z,120
2016-05-05T06:03:23.257Z,120
2016-05-05T06:04:23.291Z,120
2016-05-05T06:05:23.326Z,120
2016-05-05T06:06:23.360Z,125
2016-05-05T06:07:23.377Z,120
2016-05-05T06:08:23.411Z,120
2016-05-05T06:09:23.539Z,120
2016-05-05T06:10:23.480Z,120
2016-05-05T06:11:23.045Z,125
2016-05-05T06:12:23.406Z,125
2016-05-05T06:13:23.425Z,125
2016-05-05T06:14:23.600Z,125
2016-05-05T06:15:23.633Z,125
2016-05-05T06:16:23.651Z,145
2016-05-05T06:17:23.686Z,165
2016-05-05T06:18:23.735Z,145
2016-05-05T06:19:23.613Z,125
2016-05-05T06:20:23.787Z,125
2016-05-05T06:21:23.822Z,120
2016-05-05T06:22:23.714Z,125
2016-05-05T06:23:23.586Z,125
2016-05-05T06:24:23.933Z,125
2016-05-05T06:25:23.951Z,125
2016-05-05T06:26:23.861Z,125
2016-05-05T06:27:24.004Z,125
2016-05-05T06:28:23.896Z,130
2016-05-05T06:29:23.931Z,130
2016-05-05T06:30:24.105Z,145
2016-05-05T06:31:24.140Z,220
2016-05-05T06:32:24.190Z,205
2016-05-05T06:33:24.207Z,145
2016-05-05T06:34:24.085Z,135
2016-05-05T06:35:24.118Z,135
2016-05-05T06:36:24.153Z,135
2016-05-05T06:37:24.328Z,140
2016-05-05T06:38:24.220Z,140
2016-05-05T06:39:24.770Z,135
2016-05-05T06:40:24.429Z,145
2016-05-05T06:41:24.463Z,145
2016-05-05T06:42:24.498Z,140
2016-05-05T06:43:24.531Z,145
2016-05-05T06:44:24.565Z,145
2016-05-05T06:45:24.583Z,150
2016-05-05T06:46:24.648Z,155
2016-05-05T06:47:24.683Z,145
2016-05-05T06:48:24.528Z,135
2016-05-05T06:49:24.406Z,135
2016-05-05T06:50:24.753Z,135
2016-05-05T06:51:24.802Z,135
2016-05-05T06:52:24.805Z,140
2016-05-05T06:53:24.855Z,135
2016-05-05T06:54:25.295Z,135
2016-05-05T06:55:24.922Z,135
2016-05-05T06:56:24.957Z,135
2016-05-05T06:57:24.975Z,135
2016-05-05T06:58:25.009Z,135
2016-05-05T06:59:25.043Z,140
2016-05-05T07:00:25.076Z,140
2016-05-05T07:01:25.111Z,140
2016-05-05T07:02:24.988Z,140
2016-05-05T07:03:25.038Z,140
2016-05-05T07:04:25.213Z,140
2016-05-05T07:05:25.247Z,140
2016-05-05T07:06:25.124Z,145
2016-05-05T07:07:25.159Z,150
2016-05-05T07:08:25.176Z,150
2016-05-05T07:09:25.507Z,150
2016-05-05T07:10:25.260Z,150
2016-05-05T07:11:25.434Z,150
2016-05-05T07:12:25.468Z,145
2016-05-05T07:13:25.487Z,140
2016-05-05T07:14:25.537Z,140
2016-05-05T07:15:25.555Z,140
2016-05-05T07:16:25.432Z,145
2016-05-05T07:17:25.639Z,145
2016-05-05T07:18:25.656Z,145
2016-05-05T07:19:25.394Z,145
2016-05-05T07:20:25.724Z,145
2016-05-05T07:21:25.742Z,150
2016-05-05T07:22:25.480Z,150
2016-05-05T07:23:25.826Z,150
2016-05-05T07:24:26.110Z,150
2016-05-05T07:25:25.894Z,155
2016-05-05T07:26:25.913Z,150
2016-05-05T07:27:25.805Z,150
2016-05-05T07:28:25.996Z,150
2016-05-05T07:29:25.858Z,150
2016-05-05T07:30:26.064Z,155
2016-05-05T07:31:25.926Z,155
2016-05-05T07:32:26.132Z,150
2016-05-05T07:33:26.150Z,150
2016-05-05T07:34:25.871Z,155
2016-05-05T07:35:26.218Z,170
2016-05-05T07:36:25.955Z,195
2016-05-05T07:37:26.145Z,200
2016-05-05T07:38:26.335Z,275
2016-05-05T07:39:26.540Z,175
2016-05-05T07:40:26.232Z,215
2016-05-05T07:41:26.421Z,430
2016-05-05T07:42:26.470Z,525
2016-05-05T07:43:26.334Z,660
2016-05-05T07:44:26.523Z,875
2016-05-05T07:45:26.557Z,800
2016-05-05T07:46:26.591Z,1050
2016-05-05T07:47:26.641Z,1195
2016-05-05T07:48:26.659Z,1200
2016-05-05T07:49:26.536Z,1330
2016-05-05T07:50:26.571Z,1305
2016-05-05T07:51:26.777Z,1280
2016-05-05T07:52:26.639Z,1225
2016-05-05T07:53:26.844Z,1210
2016-05-05T07:54:26.831Z,1195
2016-05-05T07:55:26.771Z,1190
2016-05-05T07:56:26.930Z,1215
2016-05-05T07:57:27.027Z,1270
2016-05-05T07:58:26.858Z,1385
2016-05-05T07:59:26.752Z,1440
2016-05-05T08:00:27.097Z,1455
2016-05-05T08:01:27.147Z,1475
2016-05-05T08:02:27.024Z,1490
2016-05-05T08:03:27.043Z,1480
2016-05-05T08:04:27.265Z,1480
2016-05-05T08:05:27.127Z,1495
2016-05-05T08:06:27.333Z,1510
2016-05-05T08:07:27.366Z,1530
2016-05-05T08:08:27.259Z,1545
2016-05-05T08:09:27.169Z,1550
2016-05-05T08:10:27.187Z,1535
2016-05-05T08:11:27.221Z,1490
2016-05-05T08:12:27.583Z,1460
2016-05-05T08:13:27.617Z,1450
2016-05-05T08:14:27.495Z,1425
2016-05-05T08:15:27.701Z,1410
2016-05-05T08:16:27.734Z,1365
2016-05-05T08:17:27.799Z,1360
2016-05-05T08:18:27.818Z,1360
2016-05-05T08:19:27.695Z,1375
2016-05-05T08:20:27.917Z,1420
2016-05-05T08:21:27.967Z,1450
2016-05-05T08:22:27.673Z,1510
2016-05-05T08:23:27.722Z,1495
2016-05-05T08:24:28.100Z,1485
2016-05-05T08:25:28.133Z,1455
2016-05-05T08:26:28.011Z,1425
2016-05-05T08:27:28.217Z,1420
2016-05-05T08:28:28.267Z,1360
2016-05-05T08:29:28.285Z,1310
2016-05-05T08:30:28.350Z,1300
2016-05-05T08:31:28.244Z,1315
2016-05-05T08:32:28.433Z,1375
2016-05-05T08:33:28.327Z,1430
2016-05-05T08:34:28.361Z,1520
2016-05-05T08:35:28.410Z,1595
2016-05-05T08:36:28.460Z,1590
2016-05-05T08:37:28.666Z,1600
2016-05-05T08:38:28.699Z,1625
2016-05-05T08:39:30.109Z,1640
2016-05-05T08:40:28.626Z,1660
2016-05-05T08:41:28.676Z,1655
2016-05-05T08:42:28.742Z,1645
2016-05-05T08:43:28.776Z,1695
2016-05-05T08:44:28.965Z,1715
2016-05-05T08:45:29.016Z,1675
2016-05-05T08:46:28.893Z,1660
2016-05-05T08:47:29.098Z,1620
2016-05-05T08:48:29.148Z,1610
2016-05-05T08:49:29.042Z,1570
2016-05-05T08:50:29.232Z,1615
2016-05-05T08:51:29.141Z,1645
2016-05-05T08:52:29.316Z,1760
2016-05-05T08:53:29.381Z,1615
2016-05-05T08:54:29.289Z,900
2016-05-05T08:55:29.480Z,445
2016-05-05T08:56:29.498Z,480
2016-05-05T08:57:29.392Z,520
2016-05-05T08:58:29.597Z,565
2016-05-05T08:59:29.677Z,510
2016-05-05T09:00:29.525Z,500
2016-05-05T09:01:29.716Z,380
2016-05-05T09:02:29.763Z,380
2016-05-05T09:03:29.814Z,410
2016-05-05T09:04:29.848Z,340
2016-05-05T09:05:29.897Z,355
2016-05-05T09:06:29.634Z,480
2016-05-05T09:07:29.981Z,480
2016-05-05T09:08:29.859Z,290
2016-05-05T09:09:30.377Z,285
2016-05-05T09:10:30.098Z,500
2016-05-05T09:11:30.148Z,1135
2016-05-05T09:12:30.182Z,1395
2016-05-05T09:13:30.232Z,1630
2016-05-05T09:14:30.109Z,1765
2016-05-05T09:15:30.143Z,1890
2016-05-05T09:16:30.349Z,1880
2016-05-05T09:17:30.243Z,1860
2016-05-05T09:18:30.416Z,1835
2016-05-05T09:19:30.310Z,1840
2016-05-05T09:20:30.344Z,1860
2016-05-05T09:21:30.565Z,1890
2016-05-05T09:22:30.600Z,1910
2016-05-05T09:23:30.649Z,1905
2016-05-05T09:24:30.605Z,1875
2016-05-05T09:25:30.560Z,1905
2016-05-05T09:26:30.470Z,1975
2016-05-05T09:27:30.816Z,2010
2016-05-05T09:28:30.866Z,2010
2016-05-05T09:29:30.744Z,2000
2016-05-05T09:30:30.826Z,1990
2016-05-05T09:31:30.989Z,1985
2016-05-05T09:32:31.417Z,2015
2016-05-05T09:33:30.778Z,2070
2016-05-05T09:34:31.124Z,2080
2016-05-05T09:35:31.158Z,2025
2016-05-05T09:36:31.036Z,1990
2016-05-05T09:37:31.241Z,1940
2016-05-05T09:38:31.274Z,1770
2016-05-05T09:39:31.903Z,1590
2016-05-05T09:40:31.202Z,1465
2016-05-05T09:41:31.408Z,1350
2016-05-05T09:42:31.656Z,1350
2016-05-05T09:43:31.502Z,1445
2016-05-05T09:44:31.536Z,1530
2016-05-05T09:45:31.600Z,1520
2016-05-05T09:46:31.635Z,1420
2016-05-05T09:47:31.387Z,1260
2016-05-05T09:48:33.047Z,1145
2016-05-05T09:49:31.768Z,1085
2016-05-05T09:50:31.817Z,1130
2016-05-05T09:51:31.867Z,1265
2016-05-05T09:52:31.917Z,1435
2016-05-05T09:53:31.653Z,1585
2016-05-05T09:54:32.984Z,1705
2016-05-05T09:55:32.066Z,1775
2016-05-05T09:56:32.083Z,1810
2016-05-05T09:57:32.164Z,1810
2016-05-05T09:58:32.183Z,1850
2016-05-05T09:59:32.232Z,1895
2016-05-05T10:00:32.141Z,1905
2016-05-05T10:01:32.316Z,1915
2016-05-05T10:02:32.365Z,1885
2016-05-05T10:03:32.415Z,1875
2016-05-05T10:04:32.464Z,1880
2016-05-05T10:05:32.513Z,1885
2016-05-05T10:06:32.251Z,1895
2016-05-05T10:07:32.598Z,1900
2016-05-05T10:08:32.646Z,1920
2016-05-05T10:09:33.024Z,1935
2016-05-05T10:10:33.793Z,1930
2016-05-05T10:11:32.623Z,1920
2016-05-05T10:12:32.815Z,1885
2016-05-05T10:13:32.864Z,1885
2016-05-05T10:14:32.772Z,1890
2016-05-05T10:15:32.791Z,1910
2016-05-05T10:16:33.012Z,1915
2016-05-05T10:17:33.061Z,1910
2016-05-05T10:18:33.112Z,1880
2016-05-05T10:19:33.489Z,1865
2016-05-05T10:20:33.194Z,1875
2016-05-05T10:21:32.964Z,1905
2016-05-05T10:22:33.138Z,1935
2016-05-05T10:23:33.203Z,1975
2016-05-05T10:24:33.705Z,2015
2016-05-05T10:25:33.442Z,2015
2016-05-05T10:26:33.320Z,2010
2016-05-05T10:27:33.527Z,2005
2016-05-05T10:28:34.200Z,1980
2016-05-05T10:29:33.625Z,1925
2016-05-05T10:30:33.674Z,1885
2016-05-05T10:31:33.552Z,1860
2016-05-05T10:32:33.603Z,1855
2016-05-05T10:33:33.652Z,1830
2016-05-05T10:34:33.858Z,1840
2016-05-05T10:35:33.891Z,1840
2016-05-05T10:36:33.957Z,1810
2016-05-05T10:37:33.991Z,1750
2016-05-05T10:38:34.056Z,1685
2016-05-05T10:39:34.605Z,1615
2016-05-05T10:40:33.982Z,1565
2016-05-05T10:41:34.032Z,1525
2016-05-05T10:42:34.238Z,1535
2016-05-05T10:43:34.132Z,1540
2016-05-05T10:44:34.322Z,1580
2016-05-05T10:45:34.371Z,1685
2016-05-05T10:46:34.437Z,1720
2016-05-05T10:47:34.487Z,1730
2016-05-05T10:48:34.520Z,1750
2016-05-05T10:49:34.570Z,1795
2016-05-05T10:50:34.619Z,1895
2016-05-05T10:51:34.497Z,1965
2016-05-05T10:52:34.922Z,1990
2016-05-05T10:53:34.767Z,2035
2016-05-05T10:54:38.333Z,2085
2016-05-05T10:55:35.492Z,2110
2016-05-05T10:56:36.558Z,2100
2016-05-05T10:57:34.950Z,2075
2016-05-05T10:58:35.032Z,2045
2016-05-05T10:59:35.125Z,2010
2016-05-05T11:00:35.218Z,2020
2016-05-05T11:01:35.156Z,2025
2016-05-05T11:02:35.248Z,2035
2016-05-05T11:03:35.462Z,2025
2016-05-05T11:04:35.372Z,1975
2016-05-05T11:05:35.452Z,1950
2016-05-05T11:06:35.674Z,2000
2016-05-05T11:07:35.723Z,2020
2016-05-05T11:08:35.782Z,2015
2016-05-05T11:09:35.556Z,2025
2016-05-05T11:10:35.736Z,2000
2016-05-05T11:11:35.634Z,1970
2016-05-05T11:12:36.002Z,1920
2016-05-05T11:13:35.882Z,1935
2016-05-05T11:14:36.106Z,1940
2016-05-05T11:15:36.156Z,1955
2016-05-05T11:16:36.036Z,1960
2016-05-05T11:17:36.275Z,1980
2016-05-05T11:18:36.155Z,1975
2016-05-05T11:19:36.361Z,1950
2016-05-05T11:20:36.395Z,1905
2016-05-05T11:21:36.274Z,1905
2016-05-05T11:22:36.324Z,1935
2016-05-05T11:23:36.465Z,1935
2016-05-05T11:24:36.952Z,1920
2016-05-05T11:25:36.486Z,1945
2016-05-05T11:26:36.677Z,1940
2016-05-05T11:27:36.571Z,1895
2016-05-05T11:28:36.777Z,1855
2016-05-05T11:29:36.514Z,1825
2016-05-05T11:30:36.875Z,1855
2016-05-05T11:31:36.786Z,1910
2016-05-05T11:32:36.820Z,1940
2016-05-05T11:33:36.713Z,1890
2016-05-05T11:34:36.902Z,1920
2016-05-05T11:35:37.124Z,1905
2016-05-05T11:36:36.877Z,1895
2016-05-05T11:37:37.066Z,1910
2016-05-05T11:38:37.272Z,1915
2016-05-05T11:39:37.183Z,1925
2016-05-05T11:40:37.216Z,1860
2016-05-05T11:41:37.281Z,1805
2016-05-05T11:42:37.315Z,1775
2016-05-05T11:43:37.521Z,1740
2016-05-05T11:44:37.413Z,1765
2016-05-05T11:45:37.621Z,1835
2016-05-05T11:46:37.513Z,1855
2016-05-05T11:47:37.735Z,1925
2016-05-05T11:48:37.768Z,1965
2016-05-05T11:49:37.834Z,1965
2016-05-05T11:50:37.852Z,1915
2016-05-05T11:51:37.917Z,1865
2016-05-05T11:52:37.654Z,1825
2016-05-05T11:53:38.001Z,1810
2016-05-05T11:54:38.066Z,1850
2016-05-05T11:55:38.116Z,1895
2016-05-05T11:56:38.009Z,1950
2016-05-05T11:57:38.215Z,1960
2016-05-05T11:58:38.108Z,2070
2016-05-05T11:59:38.314Z,2080
2016-05-05T12:00:38.347Z,2070
2016-05-05T12:01:38.256Z,2035
2016-05-05T12:02:38.462Z,1960
2016-05-05T12:03:38.512Z,1900
2016-05-05T12:04:38.250Z,1885
2016-05-05T12:05:38.611Z,1855
2016-05-05T12:06:38.661Z,1810
2016-05-05T12:07:38.569Z,1745
2016-05-05T12:08:38.447Z,1670
2016-05-05T12:09:38.372Z,1680
2016-05-05T12:10:38.875Z,1815
2016-05-05T12:11:38.924Z,1940
2016-05-05T12:12:38.661Z,2005
2016-05-05T12:13:39.023Z,2045
2016-05-05T12:14:39.073Z,2035
2016-05-05T12:15:38.809Z,2020
2016-05-05T12:16:39.172Z,2010
2016-05-05T12:17:39.082Z,2010
2016-05-05T12:18:38.959Z,2020
2016-05-05T12:19:39.008Z,1975
2016-05-05T12:20:39.073Z,1955
2016-05-05T12:21:39.420Z,1925
2016-05-05T12:22:39.469Z,1885
2016-05-05T12:23:39.503Z,1890
2016-05-05T12:24:40.272Z,1890
2016-05-05T12:25:39.618Z,1855
2016-05-05T12:26:39.668Z,1845
2016-05-05T12:27:39.701Z,1895
2016-05-05T12:28:39.767Z,1920
2016-05-05T12:29:39.675Z,1975
2016-05-05T12:30:39.726Z,2005
2016-05-05T12:31:39.915Z,2035
2016-05-05T12:32:39.824Z,2000
2016-05-05T12:33:40.045Z,1915
2016-05-05T12:34:40.080Z,1905
2016-05-05T12:35:40.113Z,1905
2016-05-05T12:36:39.866Z,1945
2016-05-05T12:37:40.228Z,1975
2016-05-05T12:38:54.434Z,1945
2016-05-05T12:39:40.765Z,1875
2016-05-05T12:40:40.393Z,1220
2016-05-05T12:41:40.427Z,560
2016-05-05T12:42:40.319Z,565
2016-05-05T12:43:40.526Z,1820
2016-05-05T12:44:40.404Z,460
2016-05-05T12:45:40.453Z,495
2016-05-05T12:46:40.518Z,305
2016-05-05T12:47:40.552Z,465
2016-05-05T12:48:40.633Z,590
2016-05-05T12:49:40.823Z,1750
2016-05-05T12:50:40.873Z,1280
2016-05-05T12:51:40.906Z,1860
2016-05-05T12:52:40.643Z,1910
2016-05-05T12:53:41.006Z,1965
2016-05-05T12:54:41.774Z,1915
2016-05-05T12:55:41.230Z,1785
2016-05-05T12:56:40.982Z,1670
2016-05-05T12:57:41.188Z,1670
2016-05-05T12:58:41.237Z,1755
2016-05-05T12:59:41.132Z,1810
2016-05-05T13:00:41.337Z,1860
2016-05-05T13:01:41.387Z,1915
2016-05-05T13:02:41.280Z,1940
2016-05-05T13:03:41.158Z,1925
2016-05-05T13:04:41.520Z,1890
2016-05-05T13:05:41.428Z,1840
2016-05-05T13:06:41.463Z,1800
2016-05-05T13:07:41.528Z,1800
2016-05-05T13:08:41.734Z,1840
2016-05-05T13:09:42.627Z,1905
2016-05-05T13:10:41.833Z,1890
2016-05-05T13:11:41.867Z,1870
2016-05-05T13:12:41.932Z,1860
2016-05-05T13:13:41.825Z,1845
2016-05-05T13:14:42.030Z,1870
2016-05-05T13:15:42.065Z,1860
2016-05-05T13:16:42.146Z,1805
2016-05-05T13:17:42.164Z,1775
2016-05-05T13:18:42.213Z,1805
2016-05-05T13:19:42.138Z,1825
2016-05-05T13:20:42.329Z,1800
2016-05-05T13:21:42.207Z,1745
2016-05-05T13:22:42.287Z,1735
2016-05-05T13:23:42.477Z,1710
2016-05-05T13:24:42.402Z,1725
2016-05-05T13:25:42.560Z,1735
2016-05-05T13:26:42.610Z,1730
2016-05-05T13:27:42.660Z,1720
2016-05-05T13:28:42.600Z,1325
2016-05-05T13:29:42.618Z,1005
2016-05-05T13:30:42.668Z,1010
2016-05-05T13:31:42.858Z,755
2016-05-05T13:32:42.736Z,390
2016-05-05T13:33:42.957Z,260
2016-05-05T13:34:42.851Z,305
2016-05-05T13:35:43.056Z,325
2016-05-05T13:36:42.777Z,215
2016-05-05T13:38:12.109Z,205
2016-05-05T13:38:43.049Z,210
2016-05-05T13:39:48.380Z,190
2016-05-05T13:40:43.398Z,180
2016-05-05T13:41:43.010Z,235
2016-05-05T13:42:43.247Z,290
2016-05-05T13:43:43.406Z,325
2016-05-05T13:44:43.315Z,340
2016-05-05T13:45:43.505Z,310
2016-05-05T13:46:43.399Z,760
2016-05-05T13:47:43.605Z,795
2016-05-05T13:48:43.482Z,860
2016-05-05T13:49:43.687Z,745
2016-05-05T13:50:43.582Z,445
2016-05-05T13:51:43.615Z,350
2016-05-05T13:52:43.649Z,505
2016-05-05T13:53:43.855Z,750
2016-05-05T13:54:44.263Z,470